createdAt,value
2023-04-21T00:00:56.405Z,100.00
2023-04-21T00:03:26.701Z,100.00
2023-04-21T00:05:58.942Z,100.00
2023-04-21T00:08:27.943Z,100.00
2023-04-21T00:10:56.453Z,100.00
2023-04-21T00:13:26.358Z,100.00
2023-04-21T00:15:55.142Z,100.00
2023-04-21T00:18:25.957Z,100.00
2023-04-21T00:20:54.546Z,100.00
2023-04-21T00:23:23.222Z,100.00
2023-04-21T00:25:52.690Z,100.00
2023-04-21T00:28:21.199Z,100.00
2023-04-21T00:30:51.180Z,100.00
2023-04-21T00:33:19.645Z,100.00
2023-04-21T00:35:48.179Z,100.00
2023-04-21T00:38:16.708Z,100.00
2023-04-21T00:40:45.137Z,100.00
2023-04-21T00:43:14.120Z,100.00
2023-04-21T00:45:42.600Z,100.00
2023-04-21T00:48:12.840Z,100.00
2023-04-21T00:50:41.633Z,100.00
2023-04-21T00:53:11.355Z,100.00
2023-04-21T00:55:40.108Z,100.00
2023-04-21T00:58:08.776Z,100.00
2023-04-21T01:00:38.121Z,100.00
2023-04-21T01:03:08.367Z,100.00
2023-04-21T01:05:38.365Z,100.00
2023-04-21T01:08:08.194Z,100.00
2023-04-21T01:10:36.624Z,100.00
2023-04-21T01:13:05.026Z,100.00
2023-04-21T01:15:34.071Z,100.00
2023-04-21T01:18:02.750Z,100.00
2023-04-21T01:20:31.250Z,100.00
2023-04-21T01:23:01.656Z,100.00
2023-04-21T01:25:30.546Z,100.00
2023-04-21T01:27:59.062Z,100.00
2023-04-21T01:30:27.585Z,100.00
2023-04-21T01:32:58.822Z,100.00
2023-04-21T01:35:27.264Z,100.00
2023-04-21T01:37:55.814Z,100.00
2023-04-21T01:40:25.670Z,100.00
2023-04-21T01:42:54.132Z,100.00
2023-04-21T01:45:22.535Z,100.00
2023-04-21T01:47:50.976Z,100.00
2023-04-21T01:50:19.601Z,100.00
2023-04-21T01:52:48.182Z,100.00
2023-04-21T01:55:16.969Z,100.00
2023-04-21T01:57:46.914Z,100.00
2023-04-21T02:00:16.256Z,100.00
2023-04-21T02:02:44.964Z,100.00
2023-04-21T02:05:13.616Z,100.00
2023-04-21T02:07:42.122Z,100.00
2023-04-21T02:10:11.488Z,100.00
2023-04-21T02:12:40.164Z,100.00
2023-04-21T02:15:11.269Z,100.00
2023-04-21T02:17:40.089Z,100.00
2023-04-21T02:20:10.774Z,100.00
2023-04-21T02:22:39.329Z,100.00
2023-04-21T02:25:08.598Z,100.00
2023-04-21T02:27:37.030Z,100.00
2023-04-21T02:30:06.734Z,100.00
2023-04-21T02:32:36.860Z,100.00
2023-04-21T02:35:06.805Z,100.00
2023-04-21T02:37:36.178Z,100.00
2023-04-21T02:40:06.820Z,100.00
2023-04-21T02:42:35.663Z,100.00
2023-04-21T02:45:04.295Z,100.00
2023-04-21T02:47:32.862Z,100.00
2023-04-21T02:50:03.337Z,100.00
2023-04-21T02:52:31.820Z,100.00
2023-04-21T02:55:00.304Z,100.00
2023-04-21T02:57:28.780Z,100.00
2023-04-21T02:59:57.218Z,100.00
2023-04-21T03:02:26.075Z,100.00
2023-04-21T03:04:54.915Z,100.00
2023-04-21T03:07:25.001Z,100.00
2023-04-21T03:09:53.695Z,100.00
2023-04-21T03:12:22.405Z,100.00
2023-04-21T03:14:51.082Z,100.00
2023-04-21T03:17:19.855Z,100.00
2023-04-21T03:19:48.698Z,100.00
2023-04-21T03:22:17.462Z,100.00
2023-04-21T03:24:47.382Z,100.00
2023-04-21T03:27:16.103Z,100.00
2023-04-21T03:29:44.589Z,100.00
2023-04-21T03:32:13.155Z,100.00
2023-04-21T03:34:42.167Z,100.00
2023-04-21T03:37:10.565Z,100.00
2023-04-21T03:39:39.018Z,100.00
2023-04-21T03:42:08.932Z,100.00
2023-04-21T03:44:37.418Z,100.00
2023-04-21T03:47:05.921Z,100.00
2023-04-21T03:49:35.962Z,100.00
2023-04-21T03:52:04.455Z,100.00
2023-04-21T03:54:33.014Z,100.00
2023-04-21T03:57:01.377Z,100.00
2023-04-21T03:59:31.614Z,100.00
2023-04-21T04:02:00.288Z,100.00
2023-04-21T04:04:29.221Z,100.00
2023-04-21T04:06:58.039Z,100.00
2023-04-21T04:09:26.458Z,100.00
2023-04-21T04:11:54.974Z,100.00
2023-04-21T04:14:23.581Z,100.00
2023-04-21T04:16:53.457Z,100.00
2023-04-21T04:19:22.113Z,100.00
2023-04-21T04:21:50.736Z,100.00
2023-04-21T04:24:19.647Z,100.00
2023-04-21T04:26:48.330Z,100.00
2023-04-21T04:29:18.109Z,100.00
2023-04-21T04:31:46.978Z,100.00
2023-04-21T04:34:17.836Z,100.00
2023-04-21T04:36:46.323Z,100.00
2023-04-21T04:39:14.883Z,100.00
2023-04-21T04:41:43.473Z,100.00
2023-04-21T04:44:11.983Z,100.00
2023-04-21T04:46:40.956Z,100.00
2023-04-21T04:49:09.858Z,100.00
2023-04-21T04:51:39.848Z,100.00
2023-04-21T04:54:08.319Z,100.00
2023-04-21T04:56:36.916Z,100.00
2023-04-21T04:59:05.961Z,100.00
2023-04-21T05:01:34.518Z,100.00
2023-04-21T05:04:03.141Z,100.00
2023-04-21T05:06:32.902Z,100.00
2023-04-21T05:09:02.946Z,100.00
2023-04-21T05:11:31.459Z,100.00
2023-04-21T05:14:00.010Z,100.00
2023-04-21T05:16:28.738Z,100.00
2023-04-21T05:18:57.289Z,100.00
2023-04-21T05:21:27.911Z,100.00
2023-04-21T05:23:57.058Z,100.00
2023-04-21T05:26:28.091Z,100.00
2023-04-21T05:28:57.593Z,100.00
2023-04-21T05:31:26.910Z,100.00
2023-04-21T05:33:55.622Z,100.00
2023-04-21T05:36:25.179Z,100.00
2023-04-21T05:38:55.318Z,100.00
2023-04-21T05:41:24.260Z,100.00
2023-04-21T05:43:54.703Z,100.00
2023-04-21T05:46:23.348Z,100.00
2023-04-21T05:48:51.877Z,100.00
2023-04-21T05:51:20.607Z,100.00
2023-04-21T05:53:49.084Z,100.00
2023-04-21T05:56:17.792Z,100.00
2023-04-21T05:58:51.584Z,100.00
2023-04-21T06:01:21.639Z,100.00
2023-04-21T06:03:52.589Z,100.00
2023-04-21T06:06:21.764Z,100.00
2023-04-21T06:08:50.472Z,100.00
2023-04-21T06:11:18.914Z,100.00
2023-04-21T06:13:48.082Z,100.00
2023-04-21T06:16:16.496Z,100.00
2023-04-21T06:18:49.431Z,100.00
2023-04-21T06:21:17.981Z,100.00
2023-04-21T06:23:46.408Z,100.00
2023-04-21T06:26:14.768Z,100.00
2023-04-21T06:28:43.268Z,100.00
2023-04-21T06:31:15.652Z,100.00
2023-04-21T06:33:45.678Z,100.00
2023-04-21T06:36:15.108Z,100.00
2023-04-21T06:38:44.748Z,100.00
2023-04-21T06:41:13.176Z,100.00
2023-04-21T06:43:41.776Z,100.00
2023-04-21T06:46:10.218Z,100.00
2023-04-21T06:48:38.659Z,100.00
2023-04-21T06:51:08.562Z,100.00
2023-04-21T06:53:37.816Z,100.00
2023-04-21T06:56:06.506Z,100.00
2023-04-21T06:58:35.238Z,100.00
2023-04-21T07:01:04.004Z,100.00
2023-04-21T07:03:32.717Z,100.00
2023-04-21T07:06:01.252Z,100.00
2023-04-21T07:08:31.282Z,100.00
2023-04-21T07:10:59.950Z,100.00
2023-04-21T07:13:28.784Z,100.00
2023-04-21T07:15:57.809Z,100.00
2023-04-21T07:18:26.507Z,100.00
2023-04-21T07:20:55.502Z,98.14
2023-04-21T07:23:23.956Z,98.41
2023-04-21T07:25:54.006Z,95.07
2023-04-21T07:28:22.530Z,96.04
2023-04-21T07:30:51.153Z,96.17
2023-04-21T07:33:19.775Z,95.12
2023-04-21T07:35:48.268Z,94.16
2023-04-21T07:38:16.911Z,93.46
2023-04-21T07:40:45.465Z,93.80
2023-04-21T07:43:15.302Z,92.41
2023-04-21T07:45:45.462Z,89.31
2023-04-21T07:48:13.958Z,91.06
2023-04-21T07:50:42.839Z,91.42
2023-04-21T07:53:11.424Z,92.53
2023-04-21T07:55:40.482Z,91.86
2023-04-21T07:58:10.272Z,92.75
2023-04-21T08:00:40.139Z,91.24
2023-04-21T08:03:09.003Z,92.28
2023-04-21T08:05:40.878Z,91.79
2023-04-21T08:08:10.136Z,91.46
2023-04-21T08:10:39.097Z,91.70
2023-04-21T08:13:07.977Z,91.24
2023-04-21T08:15:36.511Z,90.31
2023-04-21T08:18:06.520Z,89.82
2023-04-21T08:20:35.281Z,90.22
2023-04-21T08:23:03.757Z,87.34
2023-04-21T08:25:32.242Z,88.67
2023-04-21T08:28:00.685Z,85.87
2023-04-21T08:30:29.953Z,86.83
2023-04-21T08:32:58.669Z,81.53
2023-04-21T08:35:28.576Z,84.22
2023-04-21T08:37:57.031Z,84.02
2023-04-21T08:40:33.765Z,80.98
2023-04-21T08:43:02.769Z,81.28
2023-04-21T08:45:31.505Z,79.32
2023-04-21T08:48:01.334Z,78.83
2023-04-21T08:50:32.721Z,78.98
2023-04-21T08:53:01.179Z,79.82
2023-04-21T08:55:31.481Z,84.43
2023-04-21T08:58:00.837Z,86.84
2023-04-21T09:00:29.387Z,82.87
2023-04-21T09:03:00.924Z,82.39
2023-04-21T09:05:33.078Z,78.62
2023-04-21T09:08:12.548Z,80.21
2023-04-21T09:10:48.335Z,80.74
2023-04-21T09:13:17.938Z,73.17
2023-04-21T09:15:48.749Z,77.74
2023-04-21T09:18:19.031Z,77.52
2023-04-21T09:20:51.497Z,76.80
2023-04-21T09:23:22.439Z,80.06
2023-04-21T09:25:55.677Z,75.53
2023-04-21T09:28:24.212Z,68.72
2023-04-21T09:30:57.331Z,71.45
2023-04-21T09:33:30.985Z,71.24
2023-04-21T09:36:07.352Z,71.44
2023-04-21T09:38:35.866Z,71.30
2023-04-21T09:41:04.552Z,70.87
2023-04-21T09:43:33.111Z,72.70
2023-04-21T09:46:04.496Z,72.52
2023-04-21T09:48:36.713Z,71.25
2023-04-21T09:53:41.517Z,72.67
2023-04-21T09:56:14.044Z,67.31
2023-04-21T09:58:48.217Z,70.96
2023-04-21T10:01:17.360Z,67.12
2023-04-21T10:03:47.417Z,68.77
2023-04-21T10:06:17.450Z,67.57
2023-04-21T10:08:46.449Z,66.96
2023-04-21T10:11:15.534Z,65.44
2023-04-21T10:13:45.016Z,64.70
2023-04-21T10:16:13.633Z,62.45
2023-04-21T10:18:45.860Z,63.26
2023-04-21T10:21:22.342Z,60.28
2023-04-21T10:23:52.775Z,57.99
2023-04-21T10:26:22.501Z,59.20
2023-04-21T10:28:55.506Z,56.57
2023-04-21T10:31:27.345Z,52.74
2023-04-21T10:34:21.899Z,54.83
2023-04-21T10:37:21.678Z,52.33
2023-04-21T10:39:55.129Z,49.75
2023-04-21T10:42:39.671Z,51.50
2023-04-21T10:45:11.012Z,47.67
2023-04-21T10:47:45.625Z,46.56
2023-04-21T10:50:20.576Z,43.85
2023-04-21T10:52:55.833Z,46.69
2023-04-21T10:55:27.261Z,44.82
2023-04-21T10:57:55.822Z,45.91
2023-04-21T11:00:26.204Z,48.68
2023-04-21T11:02:59.537Z,45.53
2023-04-21T11:05:38.895Z,46.58
2023-04-21T11:08:12.291Z,44.40
2023-04-21T11:10:52.291Z,46.28
2023-04-21T11:13:23.870Z,46.75
2023-04-21T11:16:03.301Z,44.95
2023-04-21T11:18:45.472Z,47.31
2023-04-21T11:21:21.696Z,43.17
2023-04-21T11:23:53.276Z,47.32
2023-04-21T11:26:32.473Z,46.75
2023-04-21T11:29:06.298Z,44.62
2023-04-21T11:31:36.149Z,43.36
2023-04-21T11:34:07.055Z,43.54
2023-04-21T11:36:35.686Z,42.10
2023-04-21T11:39:10.215Z,44.14
2023-04-21T11:41:41.416Z,44.51
2023-04-21T11:44:10.301Z,41.69
2023-04-21T11:46:39.034Z,43.48
2023-04-21T11:49:08.871Z,43.48
2023-04-21T11:51:38.929Z,43.86
2023-04-21T11:54:10.136Z,43.50
2023-04-21T11:56:39.340Z,44.13
2023-04-21T11:59:12.223Z,42.27
2023-04-21T12:01:47.185Z,43.49
2023-04-21T12:04:17.394Z,44.91
2023-04-21T12:06:46.784Z,44.06
2023-04-21T12:09:21.203Z,42.54
2023-04-21T12:11:51.339Z,43.25
2023-04-21T12:14:21.224Z,41.38
2023-04-21T12:16:51.593Z,41.79
2023-04-21T12:19:36.222Z,42.45
2023-04-21T12:22:09.524Z,39.86
2023-04-21T12:24:40.204Z,41.10
2023-04-21T12:27:09.159Z,37.83
2023-04-21T12:29:38.749Z,38.59
2023-04-21T12:32:07.945Z,39.02
2023-04-21T12:34:36.874Z,36.80
2023-04-21T12:37:06.355Z,39.01
2023-04-21T12:39:35.218Z,39.94
2023-04-21T12:42:05.239Z,39.80
2023-04-21T12:44:33.756Z,39.82
2023-04-21T12:47:02.666Z,38.35
2023-04-21T12:49:31.673Z,38.14
2023-04-21T12:52:00.760Z,36.97
2023-04-21T12:54:29.214Z,37.81
2023-04-21T12:56:58.251Z,37.38
2023-04-21T12:59:29.170Z,36.99
2023-04-21T13:01:57.872Z,38.13
2023-04-21T13:04:26.765Z,39.36
2023-04-21T13:06:55.553Z,39.46
2023-04-21T13:09:24.076Z,39.49
2023-04-21T13:11:53.099Z,38.33
2023-04-21T13:14:21.580Z,38.36
2023-04-21T13:16:51.813Z,38.57
2023-04-21T13:19:20.351Z,35.87
2023-04-21T13:21:50.515Z,37.17
2023-04-21T13:24:20.682Z,35.58
2023-04-21T13:26:49.268Z,34.91
2023-04-21T13:29:17.827Z,35.75
2023-04-21T13:31:46.434Z,35.43
2023-04-21T13:34:16.515Z,34.95
2023-04-21T13:36:45.416Z,35.04
2023-04-21T13:39:13.949Z,32.12
2023-04-21T13:41:42.623Z,33.95
2023-04-21T13:44:11.823Z,33.41
2023-04-21T13:46:40.550Z,33.11
2023-04-21T13:49:09.419Z,32.34
2023-04-21T13:51:39.430Z,33.64
2023-04-21T13:54:08.278Z,33.07
2023-04-21T13:56:37.733Z,32.66
2023-04-21T13:59:06.840Z,33.31
2023-04-21T14:01:35.549Z,32.25
2023-04-21T14:04:10.841Z,32.75
2023-04-21T14:06:41.037Z,33.65
2023-04-21T14:09:09.969Z,33.84
2023-04-21T14:11:38.431Z,34.74
2023-04-21T14:14:09.997Z,34.65
2023-04-21T14:16:40.345Z,35.67
2023-04-21T14:19:08.762Z,36.04
2023-04-21T14:21:37.428Z,33.78
2023-04-21T14:24:07.414Z,33.36
2023-04-21T14:26:36.387Z,33.69
2023-04-21T14:29:04.958Z,34.27
2023-04-21T14:31:33.771Z,33.80
2023-04-21T14:34:02.264Z,33.12
2023-04-21T14:36:31.342Z,34.16
2023-04-21T14:38:59.773Z,33.74
2023-04-21T14:41:29.769Z,33.64
2023-04-21T14:43:59.466Z,34.30
2023-04-21T14:46:29.422Z,34.18
2023-04-21T14:48:58.400Z,34.50
2023-04-21T14:51:26.976Z,33.88
2023-04-21T14:53:55.587Z,34.98
2023-04-21T14:56:24.063Z,35.06
2023-04-21T14:58:54.086Z,36.28
2023-04-21T15:01:24.501Z,36.10
2023-04-21T15:03:54.517Z,36.34
2023-04-21T15:06:23.196Z,36.83
2023-04-21T15:08:51.887Z,36.75
2023-04-21T15:11:20.428Z,37.89
2023-04-21T15:13:49.068Z,37.83
2023-04-21T15:16:19.086Z,38.27
2023-04-21T15:18:48.202Z,37.50
2023-04-21T15:21:16.694Z,36.78
2023-04-21T15:23:45.208Z,37.65
2023-04-21T15:26:13.961Z,37.43
2023-04-21T15:28:42.548Z,36.01
2023-04-21T15:31:11.160Z,36.95
2023-04-21T15:33:41.505Z,37.37
2023-04-21T15:36:10.092Z,37.41
2023-04-21T15:38:38.885Z,36.62
2023-04-21T15:41:07.538Z,37.43
2023-04-21T15:43:37.038Z,36.60
2023-04-21T15:46:13.391Z,37.54
2023-04-21T15:48:44.066Z,36.73
2023-04-21T15:51:12.849Z,36.32
2023-04-21T15:53:47.530Z,36.97
2023-04-21T15:56:16.264Z,38.82
2023-04-21T15:58:46.638Z,41.11
2023-04-21T16:01:15.548Z,40.77
2023-04-21T16:03:46.758Z,42.43
2023-04-21T16:06:15.520Z,41.12
2023-04-21T16:08:44.141Z,42.11
2023-04-21T16:11:12.872Z,40.30
2023-04-21T16:13:41.667Z,40.81
2023-04-21T16:16:10.362Z,41.32
2023-04-21T16:18:39.506Z,40.03
2023-04-21T16:21:11.025Z,41.78
2023-04-21T16:23:40.201Z,42.04
2023-04-21T16:26:09.631Z,41.20
2023-04-21T16:28:40.424Z,41.93
2023-04-21T16:31:09.384Z,41.60
2023-04-21T16:33:38.424Z,41.70
2023-04-21T16:36:08.838Z,41.61
2023-04-21T16:38:37.525Z,42.03
2023-04-21T16:41:07.135Z,41.70
2023-04-21T16:43:36.474Z,41.54
2023-04-21T16:46:05.024Z,41.55
2023-04-21T16:48:33.922Z,41.77
2023-04-21T16:51:03.086Z,41.02
2023-04-21T16:53:33.462Z,41.94
2023-04-21T16:56:02.457Z,41.96
2023-04-21T16:58:31.570Z,42.35
2023-04-21T17:01:00.221Z,42.80
2023-04-21T17:03:29.900Z,42.22
2023-04-21T17:05:58.953Z,42.47
2023-04-21T17:08:27.545Z,42.16
2023-04-21T17:10:59.452Z,41.93
2023-04-21T17:13:28.029Z,41.67
2023-04-21T17:15:57.030Z,41.71
2023-04-21T17:18:25.696Z,42.26
2023-04-21T17:20:54.589Z,42.33
2023-04-21T17:23:23.420Z,42.55
2023-04-21T17:25:55.141Z,42.86
2023-04-21T17:28:25.170Z,43.16
2023-04-21T17:31:07.057Z,43.19
2023-04-21T17:33:43.043Z,43.21
2023-04-21T17:36:13.320Z,43.59
2023-04-21T17:38:43.275Z,43.58
2023-04-21T17:41:11.934Z,43.83
2023-04-21T17:43:42.106Z,44.01
2023-04-21T17:46:11.723Z,44.21
2023-04-21T17:48:40.674Z,44.59
2023-04-21T17:51:09.605Z,44.57
2023-04-21T17:53:38.469Z,45.19
2023-04-21T17:56:07.207Z,45.04
2023-04-21T17:58:36.306Z,45.43
2023-04-21T18:01:07.492Z,45.37
2023-04-21T18:03:37.563Z,45.59
2023-04-21T18:06:06.726Z,45.93
2023-04-21T18:08:35.425Z,46.49
2023-04-21T18:11:04.015Z,47.15
2023-04-21T18:13:32.597Z,47.72
2023-04-21T18:16:02.680Z,48.42
2023-04-21T18:18:32.634Z,48.41
2023-04-21T18:21:01.446Z,49.02
2023-04-21T18:23:30.232Z,49.16
2023-04-21T18:25:59.888Z,49.22
2023-04-21T18:28:29.680Z,49.55
2023-04-21T18:30:58.665Z,50.13
2023-04-21T18:33:27.339Z,49.78
2023-04-21T18:35:57.381Z,50.09
2023-04-21T18:38:25.942Z,50.61
2023-04-21T18:40:54.642Z,50.49
2023-04-21T18:43:24.149Z,50.74
2023-04-21T18:45:53.157Z,50.75
2023-04-21T18:48:22.046Z,51.06
2023-04-21T18:50:50.951Z,51.95
2023-04-21T18:53:21.074Z,51.82
2023-04-21T18:55:49.755Z,51.74
2023-04-21T18:58:18.357Z,52.17
2023-04-21T19:00:46.994Z,52.59
2023-04-21T19:03:15.737Z,52.41
2023-04-21T19:05:44.333Z,52.74
2023-04-21T19:08:12.903Z,53.01
2023-04-21T19:10:42.977Z,52.94
2023-04-21T19:13:11.834Z,53.25
2023-04-21T19:15:40.631Z,53.48
2023-04-21T19:18:09.269Z,53.94
2023-04-21T19:20:38.653Z,54.11
2023-04-21T19:23:07.264Z,54.89
2023-04-21T19:25:37.227Z,55.03
2023-04-21T19:28:08.061Z,55.54
2023-04-21T19:30:39.192Z,55.93
2023-04-21T19:33:07.778Z,56.21
2023-04-21T19:35:36.508Z,56.64
2023-04-21T19:38:06.081Z,56.77
2023-04-21T19:40:34.592Z,57.00
2023-04-21T19:43:04.830Z,57.45
2023-04-21T19:45:34.836Z,57.41
2023-04-21T19:48:03.300Z,57.91
2023-04-21T19:50:31.967Z,58.46
2023-04-21T19:53:00.486Z,58.61
2023-04-21T19:55:29.299Z,58.67
2023-04-21T19:57:58.451Z,59.05
2023-04-21T20:00:27.230Z,58.98
2023-04-21T20:02:57.326Z,59.20
2023-04-21T20:05:25.903Z,59.59
2023-04-21T20:07:54.465Z,59.79
2023-04-21T20:10:24.613Z,59.90
2023-04-21T20:12:53.082Z,60.08
2023-04-21T20:15:22.897Z,60.44
2023-04-21T20:17:51.457Z,60.46
2023-04-21T20:20:21.840Z,61.65
2023-04-21T20:22:50.600Z,61.95
2023-04-21T20:25:19.296Z,61.90
2023-04-21T20:27:48.121Z,62.33
2023-04-21T20:30:16.616Z,62.84
2023-04-21T20:32:45.202Z,63.28
2023-04-21T20:35:16.841Z,63.58
2023-04-21T20:37:47.520Z,64.05
2023-04-21T20:40:16.052Z,63.96
2023-04-21T20:42:45.250Z,64.78
2023-04-21T20:45:14.178Z,65.39
2023-04-21T20:47:43.101Z,65.09
2023-04-21T20:50:12.047Z,65.61
2023-04-21T20:52:41.125Z,65.87
2023-04-21T20:55:12.523Z,66.01
2023-04-21T20:57:41.125Z,66.17
2023-04-21T21:00:12.487Z,66.29
2023-04-21T21:02:41.502Z,66.22
2023-04-21T21:05:10.477Z,66.52
2023-04-21T21:07:39.393Z,66.38
2023-04-21T21:10:11.155Z,66.08
2023-04-21T21:12:41.156Z,66.43
2023-04-21T21:15:10.456Z,67.12
2023-04-21T21:17:39.152Z,67.50
2023-04-21T21:20:09.062Z,67.85
2023-04-21T21:22:37.469Z,67.83
2023-04-21T21:25:06.704Z,67.94
2023-04-21T21:27:35.231Z,68.29
2023-04-21T21:30:05.947Z,68.90
2023-04-21T21:32:34.776Z,68.95
2023-04-21T21:35:03.338Z,69.53
2023-04-21T21:37:31.945Z,69.06
2023-04-21T21:40:01.094Z,69.36
2023-04-21T21:42:30.024Z,69.67
2023-04-21T21:44:58.548Z,70.77
2023-04-21T21:47:28.952Z,70.31
2023-04-21T21:49:59.140Z,71.10
2023-04-21T21:52:28.913Z,77.48
2023-04-21T21:54:58.649Z,75.52
2023-04-21T21:57:27.631Z,73.01
2023-04-21T21:59:56.429Z,73.00
2023-04-21T22:02:25.215Z,72.95
2023-04-21T22:04:55.823Z,72.71
2023-04-21T22:07:25.311Z,72.96
2023-04-21T22:09:53.943Z,72.90
2023-04-21T22:12:22.401Z,73.12
2023-04-21T22:14:50.876Z,73.33
2023-04-21T22:17:19.467Z,72.81
2023-04-21T22:19:48.005Z,72.82
2023-04-21T22:22:18.065Z,72.94
2023-04-21T22:24:46.709Z,72.84
2023-04-21T22:27:15.300Z,72.86
2023-04-21T22:29:43.784Z,73.23
2023-04-21T22:32:12.410Z,72.94
2023-04-21T22:34:41.061Z,73.79
2023-04-21T22:37:09.751Z,73.77
2023-04-21T22:39:40.412Z,73.86
2023-04-21T22:42:09.164Z,74.87
2023-04-21T22:44:37.836Z,74.99
2023-04-21T22:47:06.753Z,75.66
2023-04-21T22:49:36.974Z,75.51
2023-04-21T22:52:05.837Z,75.98
2023-04-21T22:54:34.296Z,76.02
2023-04-21T22:57:04.249Z,77.59
2023-04-21T22:59:32.696Z,77.33
2023-04-21T23:02:01.889Z,76.81
2023-04-21T23:04:30.369Z,77.22
2023-04-21T23:07:05.909Z,77.27
2023-04-21T23:09:34.321Z,77.20
2023-04-21T23:12:06.319Z,77.71
2023-04-21T23:14:34.783Z,77.35
2023-04-21T23:17:03.400Z,77.79
2023-04-21T23:19:32.607Z,78.09
2023-04-21T23:22:01.193Z,78.34
2023-04-21T23:24:29.875Z,78.75
2023-04-21T23:26:58.826Z,78.82
2023-04-21T23:29:28.653Z,79.41
2023-04-21T23:31:57.312Z,78.97
2023-04-21T23:34:26.597Z,78.83
2023-04-21T23:36:55.169Z,78.99
2023-04-21T23:39:24.068Z,80.35
2023-04-21T23:41:52.647Z,79.96
2023-04-21T23:44:21.421Z,79.81
2023-04-21T23:46:51.854Z,80.08
2023-04-21T23:49:20.310Z,80.12
2023-04-21T23:51:48.802Z,81.08
2023-04-21T23:54:17.874Z,81.52
2023-04-21T23:56:46.602Z,81.08
2023-04-21T23:59:14.941Z,80.87
